createdAt,value
2018-05-06T00:00:07.800Z,0
2018-05-06T00:01:17.732Z,0
2018-05-06T00:02:39.131Z,0
2018-05-06T00:03:48.555Z,0
2018-05-06T00:04:58.015Z,0
2018-05-06T00:06:07.176Z,0
2018-05-06T00:07:16.112Z,0
2018-05-06T00:08:25.812Z,0
2018-05-06T00:09:35.499Z,0
2018-05-06T00:10:44.659Z,0
2018-05-06T00:11:54.068Z,0
2018-05-06T00:13:03.755Z,0
2018-05-06T00:14:12.925Z,0
2018-05-06T00:15:22.879Z,0
2018-05-06T00:16:32.573Z,0
2018-05-06T00:17:41.225Z,0
2018-05-06T00:18:50.140Z,0
2018-05-06T00:19:59.563Z,0
2018-05-06T00:21:08.990Z,0
2018-05-06T00:22:18.421Z,0
2018-05-06T00:23:28.114Z,0
2018-05-06T00:24:37.531Z,0
2018-05-06T00:25:46.975Z,0
2018-05-06T00:26:56.391Z,0
2018-05-06T00:28:05.849Z,0
2018-05-06T00:29:14.763Z,0
2018-05-06T00:30:24.438Z,0
2018-05-06T00:31:33.595Z,0
2018-05-06T00:32:42.764Z,0
2018-05-06T00:33:52.179Z,0
2018-05-06T00:35:01.883Z,0
2018-05-06T00:36:11.056Z,0
2018-05-06T00:37:20.473Z,0
2018-05-06T00:38:29.643Z,0
2018-05-06T00:39:39.064Z,0
2018-05-06T00:40:47.997Z,0
2018-05-06T00:41:57.967Z,0
2018-05-06T00:43:08.005Z,0
2018-05-06T00:44:17.693Z,0
2018-05-06T00:45:27.413Z,0
2018-05-06T00:46:37.455Z,0
2018-05-06T00:47:47.145Z,0
2018-05-06T00:48:56.064Z,0
2018-05-06T00:50:04.986Z,0
2018-05-06T00:51:14.423Z,0
2018-05-06T00:52:24.372Z,0
2018-05-06T00:53:34.057Z,0
2018-05-06T00:54:43.487Z,0
2018-05-06T00:55:52.733Z,0
2018-05-06T00:57:02.667Z,0
2018-05-06T00:58:12.359Z,0
2018-05-06T00:59:21.015Z,0
2018-05-06T01:00:29.926Z,0
2018-05-06T01:01:39.771Z,0
2018-05-06T01:02:49.466Z,0
2018-05-06T01:03:59.160Z,0
2018-05-06T01:05:08.576Z,0
2018-05-06T01:06:17.468Z,0
2018-05-06T01:07:27.152Z,0
2018-05-06T01:08:36.312Z,0
2018-05-06T01:09:45.479Z,0
2018-05-06T01:10:55.172Z,0
2018-05-06T01:12:04.318Z,0
2018-05-06T01:13:13.504Z,0
2018-05-06T01:14:22.960Z,0
2018-05-06T01:15:32.933Z,0
2018-05-06T01:16:42.641Z,0
2018-05-06T01:17:51.563Z,0
2018-05-06T01:19:00.994Z,0
2018-05-06T01:20:09.908Z,0
2018-05-06T01:21:19.069Z,0
2018-05-06T01:22:27.982Z,0
2018-05-06T01:23:37.403Z,0
2018-05-06T01:24:46.817Z,0
2018-05-06T01:25:55.985Z,0
2018-05-06T01:27:05.412Z,0
2018-05-06T01:28:15.103Z,0
2018-05-06T01:29:24.514Z,0
2018-05-06T01:30:33.936Z,0
2018-05-06T01:31:43.367Z,0
2018-05-06T01:32:53.033Z,0
2018-05-06T01:34:02.207Z,0
2018-05-06T01:35:11.897Z,0
2018-05-06T01:36:21.316Z,0
2018-05-06T01:37:30.475Z,0
2018-05-06T01:38:39.896Z,0
2018-05-06T01:39:49.063Z,0
2018-05-06T01:40:58.740Z,0
2018-05-06T01:42:08.721Z,0
2018-05-06T01:43:17.882Z,0
2018-05-06T01:44:27.060Z,0
2018-05-06T01:45:36.496Z,0
2018-05-06T01:46:46.183Z,0
2018-05-06T01:47:55.886Z,0
2018-05-06T01:49:05.063Z,0
2018-05-06T01:50:14.229Z,0
2018-05-06T01:51:24.244Z,0
2018-05-06T01:52:33.937Z,0
2018-05-06T01:53:43.364Z,0
2018-05-06T01:54:52.529Z,0
2018-05-06T01:56:01.975Z,0
2018-05-06T01:57:11.419Z,0
2018-05-06T01:58:21.107Z,0
2018-05-06T01:59:30.538Z,0
2018-05-06T02:00:40.065Z,0
2018-05-06T02:01:49.580Z,0
2018-05-06T02:02:59.028Z,0
2018-05-06T02:04:08.702Z,0
2018-05-06T02:05:18.118Z,0
2018-05-06T02:06:27.547Z,0
2018-05-06T02:07:37.235Z,0
2018-05-06T02:08:46.920Z,0
2018-05-06T02:09:55.814Z,0
2018-05-06T02:11:05.005Z,0
2018-05-06T02:12:14.178Z,0
2018-05-06T02:13:23.573Z,0
2018-05-06T02:14:32.728Z,0
2018-05-06T02:15:42.411Z,0
2018-05-06T02:16:51.852Z,0
2018-05-06T02:18:01.310Z,0
2018-05-06T02:19:11.005Z,0
2018-05-06T02:20:20.945Z,0
2018-05-06T02:21:30.862Z,0
2018-05-06T02:22:40.037Z,0
2018-05-06T02:23:49.733Z,0
2018-05-06T02:24:58.895Z,0
2018-05-06T02:26:08.081Z,0
2018-05-06T02:27:17.515Z,0
2018-05-06T02:28:26.448Z,0
2018-05-06T02:29:35.873Z,0
2018-05-06T02:30:45.320Z,0
2018-05-06T02:31:55.276Z,0
2018-05-06T02:33:04.977Z,0
2018-05-06T02:34:14.420Z,0
2018-05-06T02:35:23.584Z,0
2018-05-06T02:36:33.266Z,0
2018-05-06T02:37:42.688Z,0
2018-05-06T02:38:52.458Z,0
2018-05-06T02:40:02.167Z,0
2018-05-06T02:41:11.600Z,0
2018-05-06T02:42:20.763Z,0
2018-05-06T02:43:30.223Z,0
2018-05-06T02:44:40.164Z,0
2018-05-06T02:45:49.584Z,0
2018-05-06T02:46:58.520Z,0
2018-05-06T02:48:07.976Z,0
2018-05-06T02:49:17.661Z,0
2018-05-06T02:50:26.841Z,0
2018-05-06T02:51:36.285Z,0
2018-05-06T02:52:45.457Z,0
2018-05-06T02:53:54.647Z,0
2018-05-06T02:55:03.832Z,0
2018-05-06T02:56:12.997Z,0
2018-05-06T02:57:22.164Z,0
2018-05-06T02:58:31.607Z,0
2018-05-06T02:59:41.313Z,0
2018-05-06T03:00:50.475Z,0
2018-05-06T03:02:00.160Z,0
2018-05-06T03:03:09.587Z,0
2018-05-06T03:04:19.013Z,0
2018-05-06T03:05:28.682Z,0
2018-05-06T03:06:38.399Z,0
2018-05-06T03:07:47.572Z,0
2018-05-06T03:08:56.758Z,0
2018-05-06T03:10:06.176Z,0
2018-05-06T03:11:15.871Z,0
2018-05-06T03:12:25.558Z,0
2018-05-06T03:13:35.030Z,0
2018-05-06T03:14:44.478Z,0
2018-05-06T03:15:53.905Z,0
2018-05-06T03:17:03.079Z,0
2018-05-06T03:18:12.518Z,0
2018-05-06T03:19:21.762Z,0
2018-05-06T03:20:31.464Z,0
2018-05-06T03:21:41.155Z,0
2018-05-06T03:22:50.315Z,0
2018-05-06T03:23:59.749Z,0
2018-05-06T03:25:09.459Z,0
2018-05-06T03:26:18.390Z,0
2018-05-06T03:27:27.560Z,0
2018-05-06T03:28:36.740Z,0
2018-05-06T03:29:46.196Z,0
2018-05-06T03:30:56.179Z,0
2018-05-06T03:32:05.596Z,0
2018-05-06T03:33:15.025Z,0
2018-05-06T03:34:24.206Z,0
2018-05-06T03:35:33.417Z,0
2018-05-06T03:36:42.861Z,0
2018-05-06T03:37:52.328Z,0
2018-05-06T03:39:01.509Z,0
2018-05-06T03:40:10.940Z,0
2018-05-06T03:41:20.094Z,0
2018-05-06T03:42:29.775Z,0
2018-05-06T03:43:39.196Z,0
2018-05-06T03:44:48.620Z,0
2018-05-06T03:45:57.801Z,0
2018-05-06T03:47:06.987Z,0
2018-05-06T03:48:15.901Z,0
2018-05-06T03:49:25.323Z,0
2018-05-06T03:50:34.246Z,0
2018-05-06T03:51:43.169Z,0
2018-05-06T03:52:52.341Z,0
2018-05-06T03:54:01.783Z,0
2018-05-06T03:55:10.951Z,0
2018-05-06T03:56:20.638Z,0
2018-05-06T03:57:30.082Z,0
2018-05-06T03:58:38.989Z,0
2018-05-06T03:59:47.927Z,0
2018-05-06T04:00:57.418Z,0
2018-05-06T04:02:06.866Z,0
2018-05-06T04:03:16.026Z,0
2018-05-06T04:04:25.450Z,0
2018-05-06T04:05:35.158Z,0
2018-05-06T04:06:44.941Z,0
2018-05-06T04:07:54.185Z,0
2018-05-06T04:09:03.088Z,0
2018-05-06T04:10:12.791Z,0
2018-05-06T04:11:21.955Z,0
2018-05-06T04:12:31.374Z,0
2018-05-06T04:13:40.795Z,0
2018-05-06T04:14:50.470Z,0
2018-05-06T04:15:59.894Z,0
2018-05-06T04:17:09.084Z,0
2018-05-06T04:18:18.519Z,0
2018-05-06T04:19:27.948Z,0
2018-05-06T04:20:37.405Z,0
2018-05-06T04:21:46.567Z,0
2018-05-06T04:22:56.262Z,0
2018-05-06T04:24:05.439Z,0
2018-05-06T04:25:15.153Z,0
2018-05-06T04:26:24.841Z,0
2018-05-06T04:27:34.827Z,0
2018-05-06T04:28:44.008Z,0
2018-05-06T04:29:52.682Z,0
2018-05-06T04:31:02.123Z,0
2018-05-06T04:32:11.044Z,0
2018-05-06T04:33:20.776Z,0
2018-05-06T04:34:30.459Z,0
2018-05-06T04:35:39.375Z,0
2018-05-06T04:36:48.532Z,0
2018-05-06T04:37:57.959Z,0
2018-05-06T04:39:07.386Z,0
2018-05-06T04:40:16.568Z,0
2018-05-06T04:41:26.056Z,0
2018-05-06T04:42:35.738Z,0
2018-05-06T04:43:45.461Z,0
2018-05-06T04:44:54.913Z,0
2018-05-06T04:46:03.818Z,4
2018-05-06T04:47:13.231Z,4
2018-05-06T04:48:22.470Z,4
2018-05-06T04:49:32.409Z,4
2018-05-06T04:50:41.569Z,4
2018-05-06T04:51:51.243Z,4
2018-05-06T04:53:00.669Z,4
2018-05-06T04:54:09.830Z,4
2018-05-06T04:55:18.736Z,4
2018-05-06T04:56:28.432Z,4
2018-05-06T04:57:37.855Z,4
2018-05-06T04:58:46.768Z,0
2018-05-06T04:59:56.443Z,0
2018-05-06T05:01:05.891Z,0
2018-05-06T05:02:15.588Z,0
2018-05-06T05:03:25.281Z,0
2018-05-06T05:04:34.959Z,0
2018-05-06T05:05:43.906Z,0
2018-05-06T05:06:53.335Z,0
2018-05-06T05:08:02.846Z,4
2018-05-06T05:09:12.031Z,4
2018-05-06T05:10:21.211Z,4
2018-05-06T05:11:30.380Z,4
2018-05-06T05:12:39.545Z,4
2018-05-06T05:13:48.741Z,4
2018-05-06T05:14:58.480Z,4
2018-05-06T05:16:08.190Z,4
2018-05-06T05:17:17.741Z,4
2018-05-06T05:18:27.186Z,4
2018-05-06T05:19:36.889Z,4
2018-05-06T05:20:45.628Z,4
2018-05-06T05:21:55.078Z,4
2018-05-06T05:23:04.253Z,4
2018-05-06T05:24:13.696Z,4
2018-05-06T05:25:23.645Z,4
2018-05-06T05:26:32.547Z,0
2018-05-06T05:27:42.239Z,0
2018-05-06T05:28:51.674Z,0
2018-05-06T05:30:00.851Z,0
2018-05-06T05:31:09.757Z,4
2018-05-06T05:32:18.668Z,4
2018-05-06T05:33:28.611Z,4
2018-05-06T05:34:38.173Z,4
2018-05-06T05:35:47.084Z,4
2018-05-06T05:36:55.734Z,4
2018-05-06T05:38:04.901Z,4
2018-05-06T05:39:14.053Z,4
2018-05-06T05:40:23.484Z,4
2018-05-06T05:41:32.652Z,4
2018-05-06T05:42:41.560Z,4
2018-05-06T05:43:51.095Z,4
2018-05-06T05:45:00.805Z,4
2018-05-06T05:46:09.459Z,4
2018-05-06T05:47:19.139Z,4
2018-05-06T05:48:28.058Z,4
2018-05-06T05:49:37.247Z,4
2018-05-06T05:50:46.671Z,4
2018-05-06T05:51:55.841Z,8
2018-05-06T05:53:05.017Z,8
2018-05-06T05:54:14.714Z,8
2018-05-06T05:55:24.142Z,4
2018-05-06T05:56:33.311Z,4
2018-05-06T05:57:42.779Z,8
2018-05-06T05:58:52.236Z,8
2018-05-06T06:00:01.394Z,8
2018-05-06T06:01:10.278Z,8
2018-05-06T06:02:19.453Z,4
2018-05-06T06:03:29.390Z,8
2018-05-06T06:04:38.304Z,8
2018-05-06T06:05:47.471Z,8
2018-05-06T06:06:57.413Z,8
2018-05-06T06:08:06.578Z,4
2018-05-06T06:09:16.050Z,4
2018-05-06T06:10:24.998Z,8
2018-05-06T06:11:33.651Z,8
2018-05-06T06:12:43.358Z,8
2018-05-06T06:13:53.056Z,8
2018-05-06T06:15:01.993Z,8
2018-05-06T06:16:11.693Z,8
2018-05-06T06:17:20.894Z,8
2018-05-06T06:18:30.072Z,8
2018-05-06T06:19:39.268Z,8
2018-05-06T06:20:48.941Z,8
2018-05-06T06:21:58.683Z,8
2018-05-06T06:23:08.128Z,12
2018-05-06T06:24:17.443Z,8
2018-05-06T06:25:26.926Z,8
2018-05-06T06:26:36.099Z,8
2018-05-06T06:27:45.520Z,8
2018-05-06T06:28:55.192Z,8
2018-05-06T06:30:04.444Z,8
2018-05-06T06:31:13.597Z,8
2018-05-06T06:32:22.754Z,12
2018-05-06T06:33:32.483Z,12
2018-05-06T06:34:41.396Z,12
2018-05-06T06:35:50.842Z,12
2018-05-06T06:37:00.143Z,12
2018-05-06T06:38:09.044Z,12
2018-05-06T06:39:18.521Z,8
2018-05-06T06:40:28.739Z,8
2018-05-06T06:41:38.431Z,8
2018-05-06T06:42:47.851Z,12
2018-05-06T06:43:57.328Z,12
2018-05-06T06:45:06.271Z,12
2018-05-06T06:46:14.936Z,12
2018-05-06T06:47:24.911Z,8
2018-05-06T06:48:34.362Z,12
2018-05-06T06:49:44.061Z,12
2018-05-06T06:50:53.838Z,12
2018-05-06T06:52:03.260Z,12
2018-05-06T06:53:13.214Z,12
2018-05-06T06:54:22.406Z,12
2018-05-06T06:55:31.589Z,12
2018-05-06T06:56:41.270Z,12
2018-05-06T06:57:50.708Z,12
2018-05-06T06:59:00.383Z,12
2018-05-06T07:00:09.801Z,16
2018-05-06T07:01:18.712Z,12
2018-05-06T07:02:27.891Z,12
2018-05-06T07:03:37.619Z,12
2018-05-06T07:04:47.359Z,16
2018-05-06T07:05:56.994Z,16
2018-05-06T07:07:06.557Z,12
2018-05-06T07:08:15.988Z,16
2018-05-06T07:09:25.680Z,16
2018-05-06T07:10:35.371Z,16
2018-05-06T07:11:44.799Z,16
2018-05-06T07:12:54.227Z,20
2018-05-06T07:14:03.658Z,20
2018-05-06T07:15:13.128Z,16
2018-05-06T07:16:22.805Z,16
2018-05-06T07:17:31.988Z,16
2018-05-06T07:18:41.657Z,16
2018-05-06T07:19:51.345Z,16
2018-05-06T07:21:00.240Z,16
2018-05-06T07:22:09.674Z,16
2018-05-06T07:23:18.870Z,20
2018-05-06T07:24:28.549Z,20
2018-05-06T07:25:37.474Z,20
2018-05-06T07:26:46.894Z,20
2018-05-06T07:27:56.576Z,20
2018-05-06T07:29:06.075Z,24
2018-05-06T07:30:15.748Z,20
2018-05-06T07:31:25.431Z,20
2018-05-06T07:32:35.408Z,20
2018-05-06T07:33:44.850Z,24
2018-05-06T07:34:53.766Z,20
2018-05-06T07:36:02.671Z,20
2018-05-06T07:37:12.091Z,20
2018-05-06T07:38:21.785Z,24
2018-05-06T07:39:31.190Z,24
2018-05-06T07:40:41.143Z,24
2018-05-06T07:41:50.866Z,24
2018-05-06T07:43:00.294Z,20
2018-05-06T07:44:10.252Z,24
2018-05-06T07:45:19.168Z,24
2018-05-06T07:46:28.335Z,24
2018-05-06T07:47:37.248Z,24
2018-05-06T07:48:46.679Z,24
2018-05-06T07:49:56.371Z,24
2018-05-06T07:51:05.832Z,28
2018-05-06T07:52:15.269Z,28
2018-05-06T07:53:24.451Z,28
2018-05-06T07:54:33.382Z,28
2018-05-06T07:55:43.060Z,28
2018-05-06T07:56:52.222Z,24
2018-05-06T07:58:01.646Z,24
2018-05-06T07:59:10.872Z,24
2018-05-06T08:00:20.298Z,24
2018-05-06T08:01:29.724Z,24
2018-05-06T08:02:38.907Z,28
2018-05-06T08:03:48.331Z,28
2018-05-06T08:04:57.741Z,28
2018-05-06T08:06:07.475Z,24
2018-05-06T08:07:16.676Z,24
2018-05-06T08:08:25.598Z,24
2018-05-06T08:09:34.781Z,28
2018-05-06T08:10:44.227Z,28
2018-05-06T08:11:53.759Z,28
2018-05-06T08:13:03.179Z,28
2018-05-06T08:14:12.335Z,28
2018-05-06T08:15:21.502Z,32
2018-05-06T08:16:31.727Z,28
2018-05-06T08:17:41.192Z,28
2018-05-06T08:18:50.619Z,28
2018-05-06T08:19:59.524Z,28
2018-05-06T08:21:08.436Z,28
2018-05-06T08:22:18.384Z,28
2018-05-06T08:23:27.297Z,32
2018-05-06T08:24:37.056Z,32
2018-05-06T08:25:46.746Z,32
2018-05-06T08:26:56.179Z,32
2018-05-06T08:28:05.342Z,32
2018-05-06T08:29:14.773Z,28
2018-05-06T08:30:24.202Z,28
2018-05-06T08:31:33.910Z,28
2018-05-06T08:32:43.336Z,32
2018-05-06T08:33:53.464Z,32
2018-05-06T08:35:02.630Z,32
2018-05-06T08:36:11.807Z,32
2018-05-06T08:37:20.974Z,32
2018-05-06T08:38:30.676Z,32
2018-05-06T08:39:39.846Z,32
2018-05-06T08:40:49.266Z,36
2018-05-06T08:41:58.420Z,32
2018-05-06T08:43:07.576Z,32
2018-05-06T08:44:16.482Z,32
2018-05-06T08:45:26.215Z,32
2018-05-06T08:46:35.371Z,32
2018-05-06T08:47:44.537Z,36
2018-05-06T08:48:53.960Z,36
2018-05-06T08:50:03.652Z,36
2018-05-06T08:51:13.112Z,36
2018-05-06T08:52:22.539Z,36
2018-05-06T08:53:31.692Z,36
2018-05-06T08:54:41.651Z,36
2018-05-06T08:55:50.811Z,36
2018-05-06T08:56:59.730Z,36
2018-05-06T08:58:09.697Z,32
2018-05-06T08:59:19.377Z,32
2018-05-06T09:00:28.819Z,36
2018-05-06T09:01:38.269Z,36
2018-05-06T09:02:47.950Z,36
2018-05-06T09:03:57.131Z,36
2018-05-06T09:05:06.578Z,36
2018-05-06T09:06:16.009Z,36
2018-05-06T09:07:25.184Z,36
2018-05-06T09:08:34.105Z,36
2018-05-06T09:09:43.020Z,36
2018-05-06T09:10:52.463Z,36
2018-05-06T09:12:01.894Z,36
2018-05-06T09:13:11.857Z,36
2018-05-06T09:14:21.580Z,32
2018-05-06T09:15:31.252Z,32
2018-05-06T09:16:41.200Z,32
2018-05-06T09:17:50.411Z,36
2018-05-06T09:18:59.566Z,36
2018-05-06T09:20:08.477Z,36
2018-05-06T09:21:17.914Z,36
2018-05-06T09:22:27.367Z,36
2018-05-06T09:23:37.052Z,36
2018-05-06T09:24:46.481Z,36
2018-05-06T09:25:55.380Z,36
2018-05-06T09:27:04.806Z,36
2018-05-06T09:28:14.239Z,36
2018-05-06T09:29:23.407Z,36
2018-05-06T09:30:32.616Z,36
2018-05-06T09:31:42.294Z,36
2018-05-06T09:32:51.742Z,36
2018-05-06T09:34:01.181Z,36
2018-05-06T09:35:10.346Z,32
2018-05-06T09:36:20.044Z,32
2018-05-06T09:37:29.464Z,32
2018-05-06T09:38:38.624Z,32
2018-05-06T09:39:47.559Z,32
2018-05-06T09:40:57.258Z,32
2018-05-06T09:42:06.670Z,32
2018-05-06T09:43:16.614Z,32
2018-05-06T09:44:25.590Z,32
2018-05-06T09:45:35.034Z,32
2018-05-06T09:46:44.197Z,36
2018-05-06T09:47:53.868Z,32
2018-05-06T09:49:02.994Z,32
2018-05-06T09:50:12.441Z,32
2018-05-06T09:51:21.354Z,32
2018-05-06T09:52:30.262Z,32
2018-05-06T09:53:39.721Z,32
2018-05-06T09:54:49.498Z,32
2018-05-06T09:55:58.399Z,32
2018-05-06T09:57:08.330Z,32
2018-05-06T09:58:18.004Z,32
2018-05-06T09:59:27.215Z,32
2018-05-06T10:00:36.413Z,32
2018-05-06T10:01:45.574Z,32
2018-05-06T10:02:54.488Z,32
2018-05-06T10:04:03.137Z,32
2018-05-06T10:05:13.096Z,32
2018-05-06T10:06:22.257Z,32
2018-05-06T10:07:31.715Z,32
2018-05-06T10:08:41.159Z,32
2018-05-06T10:09:50.342Z,32
2018-05-06T10:11:00.043Z,32
2018-05-06T10:12:08.936Z,32
2018-05-06T10:13:18.620Z,32
2018-05-06T10:14:27.792Z,32
2018-05-06T10:15:37.251Z,28
2018-05-06T10:16:46.167Z,28
2018-05-06T10:17:55.595Z,28
2018-05-06T10:19:05.557Z,32
2018-05-06T10:20:15.004Z,32
2018-05-06T10:21:24.437Z,32
2018-05-06T10:22:33.581Z,32
2018-05-06T10:23:42.507Z,32
2018-05-06T10:24:51.673Z,32
2018-05-06T10:26:01.102Z,28
2018-05-06T10:27:10.568Z,28
2018-05-06T10:28:20.746Z,32
2018-05-06T10:29:30.180Z,32
2018-05-06T10:30:39.348Z,32
2018-05-06T10:31:49.056Z,32
2018-05-06T10:32:58.746Z,32
2018-05-06T10:34:08.452Z,32
2018-05-06T10:35:18.398Z,32
2018-05-06T10:36:27.623Z,32
2018-05-06T10:37:37.049Z,32
2018-05-06T10:38:46.491Z,32
2018-05-06T10:39:55.669Z,32
2018-05-06T10:41:05.107Z,28
2018-05-06T10:42:14.016Z,32
2018-05-06T10:43:23.643Z,32
2018-05-06T10:44:33.278Z,32
2018-05-06T10:45:43.484Z,28
2018-05-06T10:46:52.410Z,28
2018-05-06T10:48:01.643Z,28
2018-05-06T10:49:12.166Z,28
2018-05-06T10:50:21.307Z,28
2018-05-06T10:51:30.398Z,28
2018-05-06T10:52:39.848Z,28
2018-05-06T10:53:49.541Z,28
2018-05-06T10:54:58.957Z,28
2018-05-06T10:56:08.129Z,28
2018-05-06T10:57:17.560Z,28
2018-05-06T10:58:26.986Z,32
2018-05-06T10:59:36.134Z,28
2018-05-06T11:00:45.821Z,28
2018-05-06T11:01:54.718Z,28
2018-05-06T11:03:04.161Z,28
2018-05-06T11:04:13.327Z,28
2018-05-06T11:05:23.010Z,28
2018-05-06T11:06:32.465Z,28
2018-05-06T11:07:41.918Z,28
2018-05-06T11:08:51.097Z,28
2018-05-06T11:10:00.269Z,28
2018-05-06T11:11:09.451Z,24
2018-05-06T11:12:19.373Z,24
2018-05-06T11:13:28.789Z,28
2018-05-06T11:14:37.687Z,28
2018-05-06T11:15:47.096Z,24
2018-05-06T11:16:57.116Z,24
2018-05-06T11:18:06.034Z,24
2018-05-06T11:19:15.715Z,28
2018-05-06T11:20:24.891Z,24
2018-05-06T11:21:34.073Z,24
2018-05-06T11:22:43.492Z,24
2018-05-06T11:23:53.419Z,24
2018-05-06T11:25:02.330Z,20
2018-05-06T11:26:11.629Z,20
2018-05-06T11:27:21.374Z,20
2018-05-06T11:28:30.545Z,24
2018-05-06T11:29:40.264Z,24
2018-05-06T11:30:50.210Z,24
2018-05-06T11:31:59.389Z,24
2018-05-06T11:33:08.555Z,20
2018-05-06T11:34:17.723Z,24
2018-05-06T11:35:27.416Z,20
2018-05-06T11:36:36.872Z,20
2018-05-06T11:37:46.549Z,20
2018-05-06T11:38:55.713Z,20
2018-05-06T11:40:05.156Z,20
2018-05-06T11:41:14.322Z,20
2018-05-06T11:42:24.429Z,24
2018-05-06T11:43:33.586Z,20
2018-05-06T11:44:43.259Z,28
2018-05-06T11:45:52.444Z,24
2018-05-06T11:47:01.886Z,24
2018-05-06T11:48:12.233Z,24
2018-05-06T11:49:22.018Z,24
2018-05-06T11:50:31.975Z,24
2018-05-06T11:51:41.157Z,24
2018-05-06T11:52:50.583Z,24
2018-05-06T11:54:00.009Z,24
2018-05-06T11:55:08.924Z,28
2018-05-06T11:56:18.912Z,28
2018-05-06T11:57:28.078Z,28
2018-05-06T11:58:37.507Z,28
2018-05-06T11:59:46.426Z,28
2018-05-06T12:00:55.601Z,28
2018-05-06T12:02:05.042Z,24
2018-05-06T12:03:14.213Z,24
2018-05-06T12:04:23.128Z,28
2018-05-06T12:05:33.069Z,28
2018-05-06T12:06:42.509Z,28
2018-05-06T12:07:51.417Z,32
2018-05-06T12:09:01.111Z,28
2018-05-06T12:10:11.259Z,28
2018-05-06T12:11:20.935Z,28
2018-05-06T12:12:30.383Z,28
2018-05-06T12:13:39.570Z,32
2018-05-06T12:14:49.502Z,32
2018-05-06T12:15:58.810Z,28
2018-05-06T12:17:08.560Z,32
2018-05-06T12:18:18.247Z,28
2018-05-06T12:19:27.434Z,28
2018-05-06T12:20:36.332Z,32
2018-05-06T12:21:46.022Z,32
2018-05-06T12:22:55.201Z,36
2018-05-06T12:24:05.186Z,32
2018-05-06T12:25:15.017Z,32
2018-05-06T12:26:24.700Z,36
2018-05-06T12:27:34.403Z,32
2018-05-06T12:28:43.583Z,36
2018-05-06T12:29:52.750Z,36
2018-05-06T12:31:02.429Z,40
2018-05-06T12:32:11.605Z,36
2018-05-06T12:33:21.016Z,36
2018-05-06T12:34:30.425Z,36
2018-05-06T12:35:39.754Z,40
2018-05-06T12:36:49.441Z,40
2018-05-06T12:37:58.358Z,40
2018-05-06T12:39:07.291Z,40
2018-05-06T12:40:16.460Z,44
2018-05-06T12:41:25.659Z,40
2018-05-06T12:42:34.566Z,44
2018-05-06T12:43:43.757Z,44
2018-05-06T12:44:52.912Z,48
2018-05-06T12:46:02.090Z,44
2018-05-06T12:47:11.619Z,48
2018-05-06T12:48:21.042Z,44
2018-05-06T12:49:31.037Z,48
2018-05-06T12:50:40.879Z,48
2018-05-06T12:51:50.829Z,52
2018-05-06T12:53:00.260Z,48
2018-05-06T12:54:09.439Z,48
2018-05-06T12:55:18.951Z,48
2018-05-06T12:56:28.079Z,48
2018-05-06T12:57:37.370Z,52
2018-05-06T12:58:46.864Z,52
2018-05-06T12:59:56.313Z,56
2018-05-06T13:01:05.740Z,52
2018-05-06T13:02:15.265Z,52
2018-05-06T13:03:25.289Z,56
2018-05-06T13:04:34.491Z,56
2018-05-06T13:05:44.243Z,52
2018-05-06T13:06:53.938Z,56
2018-05-06T13:08:03.357Z,56
2018-05-06T13:09:12.306Z,56
2018-05-06T13:10:22.008Z,60
2018-05-06T13:11:31.555Z,56
2018-05-06T13:12:40.990Z,56
2018-05-06T13:13:50.403Z,60
2018-05-06T13:15:00.360Z,56
2018-05-06T13:16:09.267Z,60
2018-05-06T13:17:18.430Z,60
2018-05-06T13:18:27.589Z,60
2018-05-06T13:19:37.020Z,60
2018-05-06T13:20:46.953Z,60
2018-05-06T13:21:56.129Z,60
2018-05-06T13:23:05.817Z,60
2018-05-06T13:24:15.670Z,60
2018-05-06T13:25:24.853Z,60
2018-05-06T13:26:34.539Z,60
2018-05-06T13:27:43.468Z,64
2018-05-06T13:28:53.420Z,64
2018-05-06T13:30:03.254Z,60
2018-05-06T13:31:12.379Z,68
2018-05-06T13:32:21.808Z,64
2018-05-06T13:33:31.232Z,64
2018-05-06T13:34:40.909Z,64
2018-05-06T13:35:50.064Z,64
2018-05-06T13:36:59.016Z,64
2018-05-06T13:38:08.185Z,64
2018-05-06T13:39:17.897Z,64
2018-05-06T13:40:27.576Z,64
2018-05-06T13:41:36.981Z,64
2018-05-06T13:42:46.153Z,68
2018-05-06T13:43:55.449Z,68
2018-05-06T13:45:05.168Z,64
2018-05-06T13:46:14.592Z,64
2018-05-06T13:47:24.029Z,68
2018-05-06T13:48:33.729Z,68
2018-05-06T13:49:42.913Z,68
2018-05-06T13:50:52.481Z,68
2018-05-06T13:52:01.925Z,68
2018-05-06T13:53:10.826Z,68
2018-05-06T13:54:20.572Z,68
2018-05-06T13:55:30.722Z,64
2018-05-06T13:56:40.181Z,68
2018-05-06T13:57:49.351Z,64
2018-05-06T13:58:58.797Z,64
2018-05-06T14:00:08.494Z,64
2018-05-06T14:01:17.403Z,64
2018-05-06T14:02:26.861Z,64
2018-05-06T14:03:36.539Z,64
2018-05-06T14:04:45.723Z,64
2018-05-06T14:05:54.648Z,60
2018-05-06T14:07:04.072Z,64
2018-05-06T14:08:12.705Z,60
2018-05-06T14:09:22.135Z,60
2018-05-06T14:10:31.314Z,60
2018-05-06T14:11:40.733Z,60
2018-05-06T14:12:50.451Z,60
2018-05-06T14:13:59.724Z,60
2018-05-06T14:15:08.882Z,60
2018-05-06T14:16:18.325Z,56
2018-05-06T14:17:27.248Z,56
2018-05-06T14:18:36.720Z,52
2018-05-06T14:19:46.144Z,52
2018-05-06T14:20:55.327Z,52
2018-05-06T14:22:05.017Z,52
2018-05-06T14:23:14.710Z,48
2018-05-06T14:24:23.897Z,48
2018-05-06T14:25:32.813Z,48
2018-05-06T14:26:42.507Z,48
2018-05-06T14:27:51.688Z,48
2018-05-06T14:29:01.108Z,48
2018-05-06T14:30:11.002Z,44
2018-05-06T14:31:20.414Z,44
2018-05-06T14:32:29.610Z,44
2018-05-06T14:33:39.334Z,44
2018-05-06T14:34:48.248Z,40
2018-05-06T14:35:57.444Z,36
2018-05-06T14:37:06.686Z,36
2018-05-06T14:38:15.880Z,40
2018-05-06T14:39:25.385Z,36
2018-05-06T14:40:34.623Z,36
2018-05-06T14:41:44.061Z,36
2018-05-06T14:42:53.502Z,36
2018-05-06T14:44:03.195Z,36
2018-05-06T14:45:12.896Z,32
2018-05-06T14:46:22.589Z,36
2018-05-06T14:47:32.611Z,32
2018-05-06T14:48:42.223Z,32
2018-05-06T14:49:51.921Z,32
2018-05-06T14:51:02.275Z,28
2018-05-06T14:52:11.453Z,28
2018-05-06T14:53:20.875Z,24
2018-05-06T14:54:30.853Z,24
2018-05-06T14:55:40.289Z,28
2018-05-06T14:56:49.964Z,24
2018-05-06T14:57:59.123Z,20
2018-05-06T14:59:08.811Z,16
2018-05-06T15:00:17.976Z,16
2018-05-06T15:01:27.407Z,12
2018-05-06T15:02:36.322Z,12
2018-05-06T15:03:45.819Z,8
2018-05-06T15:04:55.377Z,8
2018-05-06T15:06:04.806Z,8
2018-05-06T15:07:14.231Z,4
2018-05-06T15:08:23.927Z,4
2018-05-06T15:09:33.094Z,8
2018-05-06T15:10:43.424Z,8
2018-05-06T15:11:53.479Z,8
2018-05-06T15:13:02.898Z,8
2018-05-06T15:14:12.061Z,8
2018-05-06T15:15:21.234Z,4
2018-05-06T15:16:30.664Z,4
2018-05-06T15:17:40.114Z,4
2018-05-06T15:18:49.545Z,4
2018-05-06T15:19:59.274Z,4
2018-05-06T15:21:08.173Z,4
2018-05-06T15:22:17.081Z,4
2018-05-06T15:23:26.765Z,4
2018-05-06T15:24:36.176Z,4
2018-05-06T15:25:46.108Z,4
2018-05-06T15:26:55.522Z,4
2018-05-06T15:28:05.021Z,4
2018-05-06T15:29:14.197Z,4
2018-05-06T15:30:23.891Z,4
2018-05-06T15:31:32.788Z,4
2018-05-06T15:32:41.964Z,8
2018-05-06T15:33:50.883Z,8
2018-05-06T15:35:00.307Z,4
2018-05-06T15:36:09.994Z,4
2018-05-06T15:37:19.409Z,4
2018-05-06T15:38:28.077Z,4
2018-05-06T15:39:37.274Z,4
2018-05-06T15:40:46.442Z,4
2018-05-06T15:41:56.141Z,4
2018-05-06T15:43:05.555Z,4
2018-05-06T15:44:14.472Z,4
2018-05-06T15:45:23.128Z,4
2018-05-06T15:46:32.617Z,4
2018-05-06T15:47:41.788Z,4
2018-05-06T15:48:50.944Z,4
2018-05-06T15:50:00.106Z,4
2018-05-06T15:51:09.531Z,4
2018-05-06T15:52:18.446Z,4
2018-05-06T15:53:28.394Z,4
2018-05-06T15:54:37.831Z,4
2018-05-06T15:55:47.241Z,4
2018-05-06T15:56:56.679Z,4
2018-05-06T15:58:06.096Z,4
2018-05-06T15:59:15.524Z,4
2018-05-06T16:00:24.451Z,4
2018-05-06T16:01:33.868Z,4
2018-05-06T16:02:42.765Z,0
2018-05-06T16:03:52.192Z,0
2018-05-06T16:05:01.344Z,4
2018-05-06T16:06:10.801Z,4
2018-05-06T16:07:19.964Z,4
2018-05-06T16:08:29.408Z,4
2018-05-06T16:09:39.349Z,4
2018-05-06T16:10:48.758Z,4
2018-05-06T16:11:58.974Z,4
2018-05-06T16:13:08.800Z,4
2018-05-06T16:14:17.949Z,4
2018-05-06T16:15:27.183Z,4
2018-05-06T16:16:35.829Z,4
2018-05-06T16:17:45.071Z,4
2018-05-06T16:18:55.008Z,4
2018-05-06T16:20:04.433Z,4
2018-05-06T16:21:13.864Z,4
2018-05-06T16:22:23.183Z,4
2018-05-06T16:23:33.002Z,4
2018-05-06T16:24:42.714Z,4
2018-05-06T16:25:52.164Z,4
2018-05-06T16:27:01.327Z,4
2018-05-06T16:28:10.997Z,4
2018-05-06T16:29:20.431Z,4
2018-05-06T16:30:30.122Z,4
2018-05-06T16:31:39.554Z,4
2018-05-06T16:32:48.699Z,4
2018-05-06T16:33:58.401Z,4
2018-05-06T16:35:07.845Z,4
2018-05-06T16:36:17.285Z,4
2018-05-06T16:37:26.185Z,4
2018-05-06T16:38:35.869Z,0
2018-05-06T16:39:45.300Z,0
2018-05-06T16:40:54.472Z,0
2018-05-06T16:42:03.389Z,0
2018-05-06T16:43:13.103Z,0
2018-05-06T16:44:22.270Z,0
2018-05-06T16:45:31.710Z,0
2018-05-06T16:46:41.436Z,0
2018-05-06T16:47:50.868Z,0